createdAt,value
2023-02-22T00:00:26.722Z,14.90
2023-02-22T00:03:00.050Z,14.00
2023-02-22T00:05:28.417Z,14.33
2023-02-22T00:07:58.649Z,15.27
2023-02-22T00:10:26.124Z,14.03
2023-02-22T00:12:55.121Z,15.60
2023-02-22T00:15:27.264Z,14.40
2023-02-22T00:17:54.973Z,15.70
2023-02-22T00:20:23.391Z,14.23
2023-02-22T00:22:51.816Z,15.83
2023-02-22T00:25:21.087Z,16.07
2023-02-22T00:27:49.462Z,14.73
2023-02-22T00:30:19.654Z,15.17
2023-02-22T00:32:47.325Z,15.23
2023-02-22T00:35:16.268Z,15.80
2023-02-22T00:37:43.538Z,17.20
2023-02-22T00:40:11.846Z,16.20
2023-02-22T00:42:38.655Z,16.37
2023-02-22T00:45:06.048Z,15.30
2023-02-22T00:47:33.395Z,15.80
2023-02-22T00:50:00.491Z,15.70
2023-02-22T00:52:28.141Z,15.63
2023-02-22T00:54:55.853Z,15.83
2023-02-22T00:57:24.463Z,16.37
2023-02-22T00:59:51.268Z,15.53
2023-02-22T01:02:18.231Z,15.73
2023-02-22T01:04:45.053Z,15.43
2023-02-22T01:07:12.055Z,14.87
2023-02-22T01:09:39.609Z,14.50
2023-02-22T01:12:08.020Z,15.83
2023-02-22T01:14:34.857Z,14.17
2023-02-22T01:17:01.581Z,14.27
2023-02-22T01:19:28.401Z,15.20
2023-02-22T01:21:55.114Z,14.67
2023-02-22T01:24:21.886Z,13.67
2023-02-22T01:26:52.910Z,14.90
2023-02-22T01:29:21.187Z,15.30
2023-02-22T01:31:54.550Z,15.97
2023-02-22T01:34:23.072Z,15.17
2023-02-22T01:36:50.106Z,15.83
2023-02-22T01:39:17.966Z,14.73
2023-02-22T01:41:47.674Z,13.53
2023-02-22T01:44:36.190Z,16.13
2023-02-22T01:47:04.953Z,15.63
2023-02-22T01:49:43.281Z,16.33
2023-02-22T01:52:15.493Z,15.90
2023-02-22T01:54:49.337Z,14.67
2023-02-22T01:57:22.866Z,16.00
2023-02-22T01:59:53.368Z,14.57
2023-02-22T02:02:21.710Z,16.03
2023-02-22T02:04:49.295Z,15.50
2023-02-22T02:07:21.292Z,16.37
2023-02-22T02:09:56.756Z,16.33
2023-02-22T02:12:24.074Z,17.27
2023-02-22T02:14:50.942Z,16.97
2023-02-22T02:17:21.415Z,16.73
2023-02-22T02:20:16.946Z,16.30
2023-02-22T02:23:10.617Z,17.03
2023-02-22T02:26:15.635Z,16.00
2023-02-22T02:28:48.149Z,17.63
2023-02-22T02:31:26.416Z,17.10
2023-02-22T02:34:30.111Z,16.80
2023-02-22T02:37:09.322Z,15.77
2023-02-22T02:40:13.259Z,17.30
2023-02-22T02:42:53.359Z,17.40
2023-02-22T02:45:44.643Z,17.03
2023-02-22T02:48:14.119Z,16.80
2023-02-22T02:50:46.958Z,15.57
2023-02-22T02:53:18.104Z,17.57
2023-02-22T02:55:44.811Z,16.07
2023-02-22T02:58:21.091Z,15.60
2023-02-22T03:00:52.715Z,17.30
2023-02-22T03:03:47.748Z,18.40
2023-02-22T03:06:38.634Z,18.10
2023-02-22T03:09:15.895Z,18.00
2023-02-22T03:12:01.434Z,17.13
2023-02-22T03:14:42.519Z,15.13
2023-02-22T03:17:26.368Z,16.77
2023-02-22T03:20:06.292Z,17.10
2023-02-22T03:23:01.065Z,16.93
2023-02-22T03:25:43.276Z,15.63
2023-02-22T03:28:13.025Z,16.17
2023-02-22T03:30:52.211Z,16.93
2023-02-22T03:33:33.659Z,16.17
2023-02-22T03:36:14.954Z,15.90
2023-02-22T03:38:44.290Z,16.77
2023-02-22T03:41:15.134Z,17.43
2023-02-22T03:43:48.275Z,16.87
2023-02-22T03:46:16.439Z,16.53
2023-02-22T03:48:48.675Z,16.60
2023-02-22T03:51:17.298Z,16.33
2023-02-22T03:53:48.067Z,16.40
2023-02-22T03:56:22.728Z,17.40
2023-02-22T03:58:50.353Z,13.60
2023-02-22T04:01:17.554Z,16.20
2023-02-22T04:03:44.790Z,14.73
2023-02-22T04:06:11.787Z,16.13
2023-02-22T04:08:38.544Z,18.43
2023-02-22T04:11:05.513Z,15.27
2023-02-22T04:13:32.336Z,17.87
2023-02-22T04:15:59.249Z,16.73
2023-02-22T04:18:25.968Z,14.53
2023-02-22T04:20:52.681Z,16.40
2023-02-22T04:23:19.384Z,14.87
2023-02-22T04:25:46.096Z,16.17
2023-02-22T04:28:12.898Z,15.67
2023-02-22T04:30:39.683Z,15.90
2023-02-22T04:33:06.597Z,16.03
2023-02-22T04:35:35.509Z,15.93
2023-02-22T04:38:04.251Z,16.37
2023-02-22T04:40:31.972Z,15.80
2023-02-22T04:43:00.221Z,16.40
2023-02-22T04:45:27.485Z,16.67
2023-02-22T04:47:54.309Z,17.50
2023-02-22T04:50:21.073Z,15.53
2023-02-22T04:52:47.848Z,16.33
2023-02-22T04:55:14.596Z,19.10
2023-02-22T04:57:41.535Z,16.17
2023-02-22T05:00:10.424Z,18.37
2023-02-22T05:02:40.290Z,18.40
2023-02-22T05:05:07.417Z,17.17
2023-02-22T05:07:34.203Z,17.70
2023-02-22T05:10:02.939Z,18.17
2023-02-22T05:12:29.749Z,16.60
2023-02-22T05:14:56.665Z,16.80
2023-02-22T05:17:23.662Z,16.20
2023-02-22T05:19:50.334Z,16.63
2023-02-22T05:22:17.728Z,16.00
2023-02-22T05:24:44.464Z,15.03
2023-02-22T05:27:11.822Z,14.53
2023-02-22T05:29:38.953Z,14.40
2023-02-22T05:32:06.803Z,13.07
2023-02-22T05:34:33.577Z,13.53
2023-02-22T05:37:00.470Z,13.73
2023-02-22T05:39:27.173Z,14.00
2023-02-22T05:41:54.043Z,14.50
2023-02-22T05:44:21.084Z,13.40
2023-02-22T05:46:47.939Z,13.93
2023-02-22T05:49:14.900Z,13.13
2023-02-22T05:51:42.131Z,13.43
2023-02-22T05:54:08.908Z,12.43
2023-02-22T05:56:36.571Z,13.77
2023-02-22T05:59:03.463Z,13.30
2023-02-22T06:01:30.377Z,13.63
2023-02-22T06:03:57.080Z,13.23
2023-02-22T06:06:23.857Z,12.37
2023-02-22T06:08:50.600Z,13.80
2023-02-22T06:11:19.756Z,13.13
2023-02-22T06:13:51.580Z,13.73
2023-02-22T06:16:19.413Z,13.87
2023-02-22T06:18:46.086Z,14.57
2023-02-22T06:21:12.945Z,15.13
2023-02-22T06:23:39.781Z,13.60
2023-02-22T06:26:06.730Z,13.40
2023-02-22T06:28:33.500Z,13.50
2023-02-22T06:31:00.221Z,14.13
2023-02-22T06:33:26.901Z,13.57
2023-02-22T06:35:53.637Z,14.27
2023-02-22T06:38:25.043Z,14.73
2023-02-22T06:40:52.032Z,13.87
2023-02-22T06:43:18.961Z,14.20
2023-02-22T06:45:45.710Z,14.40
2023-02-22T06:48:13.233Z,15.20
2023-02-22T06:50:39.962Z,15.47
2023-02-22T06:53:06.956Z,15.33
2023-02-22T06:55:35.122Z,13.90
2023-02-22T06:58:03.335Z,15.43
2023-02-22T07:00:32.164Z,15.40
2023-02-22T07:02:59.644Z,16.13
2023-02-22T07:05:27.919Z,14.90
2023-02-22T07:08:01.644Z,15.83
2023-02-22T07:10:30.796Z,14.30
2023-02-22T07:12:57.628Z,14.37
2023-02-22T07:15:26.338Z,15.27
2023-02-22T07:17:53.377Z,15.87
2023-02-22T07:20:21.295Z,15.20
2023-02-22T07:22:49.263Z,14.67
2023-02-22T07:25:16.467Z,15.70
2023-02-22T07:27:43.731Z,15.47
2023-02-22T07:30:32.253Z,15.83
2023-02-22T07:33:01.283Z,15.30
2023-02-22T07:35:33.404Z,16.67
2023-02-22T07:38:00.256Z,17.33
2023-02-22T07:40:27.993Z,16.67
2023-02-22T07:43:04.342Z,16.20
2023-02-22T07:45:35.148Z,16.80
2023-02-22T07:48:04.260Z,17.10
2023-02-22T07:50:32.695Z,17.27
2023-02-22T07:53:04.880Z,16.43
2023-02-22T07:55:33.148Z,17.33
2023-02-22T07:58:03.384Z,16.77
2023-02-22T08:00:36.357Z,17.57
2023-02-22T08:03:05.632Z,17.30
2023-02-22T08:05:33.963Z,16.67
2023-02-22T08:08:01.008Z,17.00
2023-02-22T08:10:28.340Z,16.27
2023-02-22T08:12:55.990Z,18.03
2023-02-22T08:15:24.421Z,17.80
2023-02-22T08:17:51.658Z,17.57
2023-02-22T08:20:19.351Z,17.93
2023-02-22T08:22:46.638Z,16.77
2023-02-22T08:25:15.547Z,16.97
2023-02-22T08:27:43.847Z,17.63
2023-02-22T08:30:22.916Z,17.57
2023-02-22T08:32:50.546Z,15.83
2023-02-22T08:35:19.330Z,16.90
2023-02-22T08:37:48.715Z,15.50
2023-02-22T08:40:17.812Z,16.57
2023-02-22T08:42:45.015Z,16.23
2023-02-22T08:45:13.451Z,17.17
2023-02-22T08:47:40.646Z,17.63
2023-02-22T08:50:08.962Z,18.77
2023-02-22T08:52:35.753Z,18.03
2023-02-22T08:55:02.872Z,17.40
2023-02-22T08:57:29.709Z,17.90
2023-02-22T08:59:56.461Z,19.30
2023-02-22T09:02:23.381Z,17.57
2023-02-22T09:04:50.195Z,18.10
2023-02-22T09:07:18.136Z,18.50
2023-02-22T09:09:45.872Z,16.93
2023-02-22T09:12:12.860Z,17.20
2023-02-22T09:14:39.701Z,17.80
2023-02-22T09:17:06.585Z,17.93
2023-02-22T09:19:33.425Z,17.10
2023-02-22T09:22:01.045Z,16.67
2023-02-22T09:24:28.217Z,15.33
2023-02-22T09:26:55.268Z,16.43
2023-02-22T09:29:27.243Z,16.70
2023-02-22T09:31:55.661Z,17.13
2023-02-22T09:34:29.659Z,16.57
2023-02-22T09:36:58.175Z,16.67
2023-02-22T09:39:25.389Z,16.70
2023-02-22T09:42:14.190Z,15.93
2023-02-22T09:45:12.903Z,14.63
2023-02-22T09:47:46.643Z,14.17
2023-02-22T09:50:42.358Z,15.90
2023-02-22T09:53:29.308Z,14.43
2023-02-22T09:56:05.064Z,16.67
2023-02-22T09:58:36.804Z,15.00
2023-02-22T10:01:23.035Z,14.90
2023-02-22T10:04:14.130Z,15.47
2023-02-22T10:06:53.159Z,14.93
2023-02-22T10:09:20.414Z,14.63
2023-02-22T10:12:00.467Z,13.93
2023-02-22T10:15:00.262Z,12.83
2023-02-22T10:18:03.469Z,14.47
2023-02-22T10:20:46.541Z,12.30
2023-02-22T10:23:45.257Z,12.53
2023-02-22T10:26:12.382Z,12.67
2023-02-22T10:28:44.682Z,12.47
2023-02-22T10:31:23.381Z,12.63
2023-02-22T10:34:05.757Z,11.67
2023-02-22T10:36:34.406Z,11.80
2023-02-22T10:39:20.674Z,11.83
2023-02-22T10:41:54.200Z,10.83
2023-02-22T10:44:21.161Z,11.13
2023-02-22T10:46:48.762Z,11.23
2023-02-22T10:49:22.287Z,11.40
2023-02-22T10:52:02.182Z,11.53
2023-02-22T10:54:36.410Z,11.07
2023-02-22T10:57:04.160Z,10.33
2023-02-22T10:59:39.589Z,11.63
2023-02-22T11:02:24.753Z,11.07
2023-02-22T11:04:54.342Z,11.13
2023-02-22T11:07:28.723Z,11.17
2023-02-22T11:10:31.140Z,10.97
2023-02-22T11:12:57.930Z,10.53
2023-02-22T11:15:29.761Z,10.80
2023-02-22T11:18:01.390Z,10.40
2023-02-22T11:20:38.566Z,10.80
2023-02-22T11:23:08.180Z,11.43
2023-02-22T11:25:38.934Z,10.97
2023-02-22T11:28:15.030Z,10.33
2023-02-22T11:30:44.565Z,11.90
2023-02-22T11:33:17.667Z,9.97
2023-02-22T11:35:56.133Z,10.23
2023-02-22T11:38:25.370Z,10.17
2023-02-22T11:41:19.202Z,10.07
2023-02-22T11:43:48.164Z,9.80
2023-02-22T11:46:21.408Z,9.53
2023-02-22T11:49:02.048Z,10.27
2023-02-22T11:51:52.887Z,9.83
2023-02-22T11:54:25.552Z,9.23
2023-02-22T11:56:58.740Z,9.40
2023-02-22T11:59:55.854Z,9.77
2023-02-22T12:02:22.690Z,9.70
2023-02-22T12:05:26.283Z,10.10
2023-02-22T12:08:21.158Z,9.27
2023-02-22T12:11:18.341Z,10.17
2023-02-22T12:14:21.083Z,10.20
2023-02-22T12:17:13.865Z,9.83
2023-02-22T12:19:46.144Z,9.77
2023-02-22T12:22:35.512Z,10.07
2023-02-22T12:25:09.733Z,10.63
2023-02-22T12:27:40.555Z,10.43
2023-02-22T12:30:18.357Z,10.03
2023-02-22T12:32:52.822Z,9.83
2023-02-22T12:35:34.891Z,10.70
2023-02-22T12:38:37.284Z,9.23
2023-02-22T12:41:13.607Z,10.57
2023-02-22T12:44:02.310Z,10.23
2023-02-22T12:46:42.109Z,10.43
2023-02-22T12:49:17.892Z,10.53
2023-02-22T12:52:12.421Z,10.97
2023-02-22T12:55:16.666Z,10.73
2023-02-22T12:58:25.228Z,11.70
2023-02-22T13:01:12.182Z,11.30
2023-02-22T13:03:40.076Z,10.73
2023-02-22T13:06:24.950Z,11.03
2023-02-22T13:09:15.160Z,11.17
2023-02-22T13:11:50.888Z,10.67
2023-02-22T13:14:47.630Z,11.13
2023-02-22T13:17:21.120Z,11.20
2023-02-22T13:20:06.081Z,11.80
2023-02-22T13:22:44.586Z,11.23
2023-02-22T13:25:25.638Z,11.20
2023-02-22T13:28:00.079Z,10.87
2023-02-22T13:30:32.790Z,11.67
2023-02-22T13:33:20.778Z,11.60
2023-02-22T13:36:02.991Z,11.57
2023-02-22T13:38:49.388Z,11.30
2023-02-22T13:41:22.057Z,12.67
2023-02-22T13:43:54.546Z,12.60
2023-02-22T13:46:26.902Z,12.73
2023-02-22T13:49:15.376Z,12.47
2023-02-22T13:51:49.350Z,12.87
2023-02-22T13:54:25.176Z,13.57
2023-02-22T13:56:54.116Z,13.33
2023-02-22T13:59:36.780Z,13.53
2023-02-22T14:02:07.831Z,13.37
2023-02-22T14:04:38.383Z,13.20
2023-02-22T14:07:25.987Z,13.77
2023-02-22T14:09:56.113Z,13.70
2023-02-22T14:12:28.762Z,13.53
2023-02-22T14:15:26.761Z,13.33
2023-02-22T14:18:04.044Z,12.97
2023-02-22T14:20:35.631Z,13.33
2023-02-22T14:23:30.059Z,13.27
2023-02-22T14:26:08.969Z,12.97
2023-02-22T14:28:52.546Z,13.20
2023-02-22T14:31:36.042Z,12.90
2023-02-22T14:34:17.766Z,13.80
2023-02-22T14:37:25.172Z,13.53
2023-02-22T14:40:12.917Z,14.20
2023-02-22T14:43:00.793Z,14.57
2023-02-22T14:45:33.945Z,13.87
2023-02-22T14:48:13.747Z,13.47
2023-02-22T14:50:40.485Z,14.07
2023-02-22T14:53:18.426Z,13.83
2023-02-22T14:56:06.990Z,14.40
2023-02-22T14:58:45.172Z,15.07
2023-02-22T15:01:44.300Z,14.50
2023-02-22T15:04:28.078Z,13.83
2023-02-22T15:06:56.769Z,14.73
2023-02-22T15:09:29.070Z,16.50
2023-02-22T15:12:02.859Z,14.37
2023-02-22T15:14:41.097Z,14.83
2023-02-22T15:17:13.683Z,14.50
2023-02-22T15:19:42.209Z,16.63
2023-02-22T15:22:29.954Z,14.80
2023-02-22T15:25:03.921Z,16.00
2023-02-22T15:27:34.591Z,15.57
2023-02-22T15:30:05.017Z,16.50
2023-02-22T15:32:37.023Z,17.27
2023-02-22T15:35:25.323Z,15.80
2023-02-22T15:38:11.569Z,15.77
2023-02-22T15:40:43.095Z,16.47
2023-02-22T15:43:19.541Z,16.70
2023-02-22T15:45:47.047Z,16.17
2023-02-22T15:48:15.956Z,17.13
2023-02-22T15:51:07.151Z,15.87
2023-02-22T15:53:44.945Z,16.77
2023-02-22T15:56:26.912Z,18.03
2023-02-22T15:59:00.692Z,17.83
2023-02-22T16:01:28.165Z,17.27
2023-02-22T16:03:58.301Z,16.67
2023-02-22T16:06:41.550Z,17.73
2023-02-22T16:09:11.641Z,16.53
2023-02-22T16:11:44.094Z,16.90
2023-02-22T16:14:35.880Z,16.83
2023-02-22T16:17:31.028Z,16.33
2023-02-22T16:20:13.848Z,17.43
2023-02-22T16:22:46.561Z,17.67
2023-02-22T16:25:19.498Z,20.23
2023-02-22T16:28:34.034Z,18.77
2023-02-22T16:31:00.962Z,18.73
2023-02-22T16:33:33.922Z,18.40
2023-02-22T16:36:05.846Z,18.37
2023-02-22T16:38:33.904Z,20.07
2023-02-22T16:41:00.772Z,19.20
2023-02-22T16:43:32.857Z,19.13
2023-02-22T16:46:03.604Z,21.03
2023-02-22T16:48:33.090Z,19.70
2023-02-22T16:51:30.590Z,20.10
2023-02-22T16:53:57.383Z,21.87
2023-02-22T16:56:30.929Z,19.87
2023-02-22T16:59:01.146Z,19.70
2023-02-22T17:01:27.939Z,22.07
2023-02-22T17:03:54.804Z,21.07
2023-02-22T17:06:21.655Z,21.63
2023-02-22T17:08:51.892Z,21.47
2023-02-22T17:11:19.099Z,21.77
2023-02-22T17:13:47.262Z,21.20
2023-02-22T17:16:14.909Z,19.83
2023-02-22T17:18:41.878Z,19.70
2023-02-22T17:21:11.221Z,21.67
2023-02-22T17:23:38.059Z,21.20
2023-02-22T17:26:05.120Z,22.20
2023-02-22T17:28:32.374Z,21.00
2023-02-22T17:31:01.453Z,20.37
2023-02-22T17:33:31.339Z,21.63
2023-02-22T17:35:59.554Z,21.53
2023-02-22T17:38:30.222Z,22.17
2023-02-22T17:40:58.971Z,22.57
2023-02-22T17:43:27.994Z,22.60
2023-02-22T17:45:55.345Z,21.53
2023-02-22T17:48:24.124Z,22.50
2023-02-22T17:50:52.219Z,23.33
2023-02-22T17:53:22.671Z,26.00
2023-02-22T17:55:50.217Z,25.10
2023-02-22T17:58:17.833Z,26.27
2023-02-22T18:00:50.334Z,31.10
2023-02-22T18:03:21.837Z,30.97
2023-02-22T18:05:51.032Z,33.17
2023-02-22T18:08:18.375Z,34.33
2023-02-22T18:10:45.865Z,35.73
2023-02-22T18:13:16.651Z,37.33
2023-02-22T18:15:44.064Z,37.20
2023-02-22T18:18:11.107Z,37.27
2023-02-22T18:20:43.613Z,38.53
2023-02-22T18:23:16.311Z,37.30
2023-02-22T18:26:03.818Z,36.30
2023-02-22T18:28:35.901Z,38.73
2023-02-22T18:31:10.263Z,38.67
2023-02-22T18:33:37.180Z,39.07
2023-02-22T18:36:04.684Z,37.60
2023-02-22T18:38:31.519Z,40.63
2023-02-22T18:41:03.833Z,38.40
2023-02-22T18:43:37.262Z,38.80
2023-02-22T18:46:12.359Z,37.17
2023-02-22T18:48:39.705Z,36.17
2023-02-22T18:51:12.367Z,38.40
2023-02-22T18:53:41.064Z,37.17
2023-02-22T18:56:09.978Z,39.10
2023-02-22T18:58:38.817Z,39.00
2023-02-22T19:01:06.786Z,36.50
2023-02-22T19:03:38.161Z,37.83
2023-02-22T19:06:10.066Z,35.93
2023-02-22T19:08:39.661Z,36.30
2023-02-22T19:11:08.636Z,37.30
2023-02-22T19:13:36.420Z,33.43
2023-02-22T19:16:05.138Z,34.80
2023-02-22T19:18:32.041Z,35.67
2023-02-22T19:21:02.997Z,33.33
2023-02-22T19:23:34.374Z,33.20
2023-02-22T19:26:02.710Z,33.20
2023-02-22T19:28:34.056Z,33.00
2023-02-22T19:31:29.503Z,33.43
2023-02-22T19:34:00.741Z,33.03
2023-02-22T19:36:27.860Z,33.00
2023-02-22T19:38:54.755Z,32.20
2023-02-22T19:41:23.012Z,33.37
2023-02-22T19:43:52.017Z,33.17
2023-02-22T19:46:21.104Z,32.63
2023-02-22T19:48:49.319Z,33.13
2023-02-22T19:51:18.494Z,33.00
2023-02-22T19:53:46.560Z,33.23
2023-02-22T19:56:16.215Z,33.67
2023-02-22T19:58:44.917Z,32.10
2023-02-22T20:01:23.263Z,32.90
2023-02-22T20:03:54.623Z,32.23
2023-02-22T20:06:25.837Z,32.50
2023-02-22T20:08:52.790Z,33.87
2023-02-22T20:11:19.861Z,32.77
2023-02-22T20:13:47.098Z,33.80
2023-02-22T20:16:16.653Z,34.23
2023-02-22T20:18:47.836Z,32.67
2023-02-22T20:21:26.244Z,33.00
2023-02-22T20:23:57.043Z,33.50
2023-02-22T20:26:25.474Z,32.93
2023-02-22T20:28:52.902Z,32.23
2023-02-22T20:31:21.276Z,32.83
2023-02-22T20:33:52.804Z,32.10
2023-02-22T20:36:22.210Z,31.87
2023-02-22T20:38:51.815Z,31.20
2023-02-22T20:41:33.630Z,32.50
2023-02-22T20:44:02.070Z,31.83
2023-02-22T20:46:36.155Z,31.53
2023-02-22T20:49:05.276Z,29.93
2023-02-22T20:51:32.056Z,31.40
2023-02-22T20:54:00.157Z,32.60
2023-02-22T20:56:28.836Z,31.77
2023-02-22T20:58:57.420Z,33.73
2023-02-22T21:01:24.606Z,33.37
2023-02-22T21:03:51.731Z,32.20
2023-02-22T21:06:21.602Z,31.73
2023-02-22T21:08:57.098Z,32.13
2023-02-22T21:11:26.005Z,31.90
2023-02-22T21:13:53.501Z,31.83
2023-02-22T21:16:24.091Z,31.50
2023-02-22T21:18:55.998Z,32.27
2023-02-22T21:21:23.088Z,34.57
2023-02-22T21:23:52.374Z,33.53
2023-02-22T21:26:24.803Z,34.17
2023-02-22T21:28:52.600Z,36.43
2023-02-22T21:31:24.872Z,36.77
2023-02-22T21:33:54.140Z,37.10
2023-02-22T21:36:26.549Z,36.33
2023-02-22T21:38:56.744Z,33.63
2023-02-22T21:41:27.985Z,34.00
2023-02-22T21:43:56.883Z,33.17
2023-02-22T21:46:29.232Z,32.17
2023-02-22T21:48:58.588Z,31.90
2023-02-22T21:51:31.824Z,31.43
2023-02-22T21:54:03.711Z,31.50
2023-02-22T21:56:34.295Z,30.57
2023-02-22T21:59:03.457Z,30.37
2023-02-22T22:01:33.007Z,30.37
2023-02-22T22:04:01.583Z,30.60
2023-02-22T22:06:30.292Z,30.67
2023-02-22T22:08:58.511Z,29.80
2023-02-22T22:11:25.716Z,30.27
2023-02-22T22:13:57.591Z,30.13
2023-02-22T22:16:27.253Z,29.87
2023-02-22T22:18:55.314Z,29.30
2023-02-22T22:21:24.431Z,26.83
2023-02-22T22:23:56.018Z,29.27
2023-02-22T22:26:24.906Z,28.90
2023-02-22T22:28:54.503Z,28.60
2023-02-22T22:31:23.665Z,29.10
2023-02-22T22:33:50.861Z,29.13
2023-02-22T22:36:19.086Z,27.57
2023-02-22T22:38:48.704Z,29.33
2023-02-22T22:41:18.892Z,29.00
2023-02-22T22:43:46.207Z,28.13
2023-02-22T22:46:16.233Z,29.53
2023-02-22T22:48:47.403Z,28.97
2023-02-22T22:51:18.442Z,29.67
2023-02-22T22:53:47.588Z,28.53
2023-02-22T22:56:17.593Z,28.60
2023-02-22T22:58:51.734Z,28.67
2023-02-22T23:01:26.828Z,28.20
2023-02-22T23:04:01.679Z,27.63
2023-02-22T23:06:32.858Z,30.03
2023-02-22T23:09:10.216Z,28.63
2023-02-22T23:11:45.703Z,29.27
2023-02-22T23:14:20.533Z,29.70
2023-02-22T23:16:50.086Z,29.77
2023-02-22T23:19:19.181Z,30.40
2023-02-22T23:21:50.278Z,28.17
2023-02-22T23:24:21.039Z,30.43
2023-02-22T23:26:50.994Z,29.17
2023-02-22T23:29:19.503Z,29.33
2023-02-22T23:31:48.321Z,30.07
2023-02-22T23:34:21.196Z,29.57
2023-02-22T23:36:49.407Z,31.20
2023-02-22T23:39:20.722Z,28.10
2023-02-22T23:41:55.844Z,28.83
2023-02-22T23:44:23.309Z,28.43
2023-02-22T23:46:55.421Z,29.30
2023-02-22T23:49:26.952Z,28.07
2023-02-22T23:51:54.833Z,29.17
2023-02-22T23:54:24.515Z,26.83
2023-02-22T23:56:57.913Z,27.73
2023-02-22T23:59:26.339Z,27.93
